Hlavní strana
METAR-TAF:

METAR-TAF

Letiště :

David, Panama

zeměpisná šířka: 08-24N, zeměpisná délka: 082-25W, výška: 29 m

Aktuální stav počasí

Zpráva byla vytvořena před 4 hodinami a 7 minutami, v 03:00 UTC
Severovýchodní vítr 2 kt
Teplota 25°C
Vlhkost vzduchu 100%
Tlak 1010 hPa
Viditelnost 10 km a více
Polojasno ve výšce 1500 ft, Cumulonimbus.
bouřka

METAR: MPDA 200300Z 05002KT 9999 TS SCT015CB 25/25 Q1010

Čas: 02:07 (07:07 UTC)

Předpověď počasí

Zpráva byla vytvořena před 8 hodinami a 7 minutami, v 23:00 UTC
Předpověď platná od 20 v 00 UTC do 20 v 12 UTC
Jihojihozápadní vítr 7 kt
Viditelnost 10 km a více
Polojasno ve výšce 1800 ft
Polojasno ve výšce 9000 ft

TAF: MPDA 192300Z 2000/2012 21007KT 9999 SCT018 SCT090

Stav a předpovědi počasí z více než 4 000 letišť (zprávy METAR a TAF).

Červené a žluté tečky na mapě představují dostupné meteorologické stanice.

Když kurzor umístíte na tečku, zobrazí se název stanice.

Pak kliknutím zobrazíte stav a předpověď počasí.

Chcete-li změnit mapu, kliknutím na zelené tlačítko se znaménkem +mapu přiblížíte, kliknutím na zelené tlačítko se znaménkem – mapu oddálíte a kliknutím na zelené šipky přejdete na sousední mapy.


METAR-TAF: